createdAt,value
2023-02-22T00:02:27.756Z,94176.56
2023-02-22T00:05:32.435Z,94173.13
2023-02-22T00:08:37.865Z,94177.38
2023-02-22T00:11:47.517Z,94189.13
2023-02-22T00:14:51.732Z,94194.72
2023-02-22T00:17:55.872Z,94186.59
2023-02-22T00:21:00.825Z,94197.19
2023-02-22T00:24:23.679Z,94193.81
2023-02-22T00:27:26.611Z,94190.47
2023-02-22T00:30:32.865Z,94192.28
2023-02-22T00:33:39.039Z,94184.44
2023-02-22T00:36:49.923Z,94190.47
2023-02-22T00:39:53.415Z,94186.19
2023-02-22T00:42:57.144Z,94186.19
2023-02-22T00:46:01.582Z,94184.63
2023-02-22T00:49:06.141Z,94179.19
2023-02-22T00:52:09.984Z,94175.66
2023-02-22T00:55:20.669Z,94183.31
2023-02-22T00:58:24.979Z,94175.91
2023-02-22T01:01:28.803Z,94184.00
2023-02-22T01:04:32.085Z,94190.66
2023-02-22T01:07:35.984Z,94192.13
2023-02-22T01:10:41.330Z,94188.13
2023-02-22T01:13:47.976Z,94187.25
2023-02-22T01:16:52.422Z,94187.25
2023-02-22T01:19:56.040Z,94190.81
2023-02-22T01:23:01.565Z,94195.22
2023-02-22T01:26:06.523Z,94192.06
2023-02-22T01:29:16.176Z,94184.00
2023-02-22T01:32:19.547Z,94189.31
2023-02-22T01:35:26.466Z,94186.75
2023-02-22T01:38:29.490Z,94189.44
2023-02-22T01:41:33.420Z,94185.59
2023-02-22T01:44:42.041Z,94187.63
2023-02-22T01:47:46.028Z,94183.56
2023-02-22T01:51:11.996Z,94181.91
2023-02-22T01:54:19.834Z,94174.56
2023-02-22T01:57:30.575Z,94182.75
2023-02-22T02:00:34.602Z,94180.56
2023-02-22T02:03:40.614Z,94184.63
2023-02-22T02:06:45.977Z,94177.69
2023-02-22T02:09:57.234Z,94184.28
2023-02-22T02:13:04.872Z,94176.22
2023-02-22T02:16:09.678Z,94177.44
2023-02-22T02:19:55.830Z,94178.19
2023-02-22T02:23:23.196Z,94174.56
2023-02-22T02:26:43.592Z,94168.03
2023-02-22T02:29:55.894Z,94174.66
2023-02-22T02:33:04.807Z,94179.50
2023-02-22T02:36:19.772Z,94171.50
2023-02-22T02:39:42.221Z,94163.31
2023-02-22T02:43:27.295Z,94172.47
2023-02-22T02:46:58.123Z,94175.06
2023-02-22T02:50:07.859Z,94168.69
2023-02-22T02:53:14.355Z,94173.28
2023-02-22T02:56:20.424Z,94176.22
2023-02-22T02:59:31.502Z,94169.75
2023-02-22T03:03:07.334Z,94166.00
2023-02-22T03:06:40.296Z,94160.88
2023-02-22T03:09:43.846Z,94168.06
2023-02-22T03:13:05.646Z,94152.34
2023-02-22T03:16:45.557Z,94150.25
2023-02-22T03:20:06.915Z,94156.84
2023-02-22T03:23:41.885Z,94154.69
2023-02-22T03:27:15.042Z,94154.66
2023-02-22T03:30:29.443Z,94157.84
2023-02-22T03:33:50.649Z,94151.72
2023-02-22T03:37:00.518Z,94156.06
2023-02-22T03:40:14.510Z,94151.88
2023-02-22T03:43:28.773Z,94145.72
2023-02-22T03:46:36.587Z,94149.09
2023-02-22T03:49:50.116Z,94141.75
2023-02-22T03:52:55.048Z,94145.44
2023-02-22T03:56:06.462Z,94144.31
2023-02-22T03:59:11.578Z,94149.81
2023-02-22T04:02:19.903Z,94141.59
2023-02-22T04:05:25.366Z,94140.53
2023-02-22T04:08:28.413Z,94142.09
2023-02-22T04:11:32.081Z,94138.88
2023-02-22T04:14:36.782Z,94139.06
2023-02-22T04:17:40.040Z,94143.41
2023-02-22T04:20:46.095Z,94139.06
2023-02-22T04:23:59.861Z,94140.69
2023-02-22T04:27:04.156Z,94132.19
2023-02-22T04:30:11.300Z,94129.34
2023-02-22T04:33:16.662Z,94129.03
2023-02-22T04:36:19.646Z,94143.09
2023-02-22T04:39:23.036Z,94138.38
2023-02-22T04:42:28.444Z,94140.72
2023-02-22T04:45:31.671Z,94140.69
2023-02-22T04:48:34.750Z,94142.00
2023-02-22T04:51:37.592Z,94140.13
2023-02-22T04:54:44.409Z,94136.72
2023-02-22T04:57:48.044Z,94139.00
2023-02-22T05:00:55.699Z,94142.34
2023-02-22T05:04:02.440Z,94140.31
2023-02-22T05:07:06.500Z,94147.66
2023-02-22T05:10:11.081Z,94140.53
2023-02-22T05:13:14.917Z,94139.53
2023-02-22T05:16:18.132Z,94143.81
2023-02-22T05:19:22.001Z,94141.50
2023-02-22T05:22:25.904Z,94137.38
2023-02-22T05:25:29.215Z,94137.75
2023-02-22T05:28:33.198Z,94141.16
2023-02-22T05:31:37.321Z,94133.66
2023-02-22T05:34:40.454Z,94130.66
2023-02-22T05:37:43.303Z,94123.38
2023-02-22T05:40:46.844Z,94123.59
2023-02-22T05:43:49.720Z,94135.16
2023-02-22T05:46:53.685Z,94134.69
2023-02-22T05:49:57.361Z,94138.34
2023-02-22T05:53:01.009Z,94129.50
2023-02-22T05:56:05.947Z,94143.59
2023-02-22T05:59:08.899Z,94140.53
2023-02-22T06:02:11.921Z,94135.97
2023-02-22T06:05:15.493Z,94143.91
2023-02-22T06:08:18.661Z,94146.09
2023-02-22T06:11:21.942Z,94154.84
2023-02-22T06:14:25.074Z,94149.38
2023-02-22T06:17:28.930Z,94146.25
2023-02-22T06:20:33.909Z,94149.19
2023-02-22T06:23:37.486Z,94150.34
2023-02-22T06:26:41.187Z,94156.47
2023-02-22T06:29:48.696Z,94158.78
2023-02-22T06:32:52.573Z,94155.88
2023-02-22T06:35:55.486Z,94157.72
2023-02-22T06:38:58.472Z,94155.53
2023-02-22T06:42:02.211Z,94154.94
2023-02-22T06:45:06.072Z,94156.47
2023-02-22T06:48:10.085Z,94165.34
2023-02-22T06:51:12.987Z,94168.41
2023-02-22T06:54:16.221Z,94163.13
2023-02-22T06:57:19.814Z,94165.13
2023-02-22T07:00:26.029Z,94165.00
2023-02-22T07:03:28.905Z,94167.72
2023-02-22T07:06:32.245Z,94158.94
2023-02-22T07:09:35.406Z,94165.06
2023-02-22T07:12:39.495Z,94164.75
2023-02-22T07:15:42.609Z,94157.91
2023-02-22T07:18:45.578Z,94164.97
2023-02-22T07:21:48.656Z,94167.88
2023-02-22T07:24:51.521Z,94169.69
2023-02-22T07:27:54.735Z,94178.09
2023-02-22T07:30:57.746Z,94188.66
2023-02-22T07:34:00.600Z,94200.81
2023-02-22T07:37:04.727Z,94186.41
2023-02-22T07:40:08.471Z,94194.34
2023-02-22T07:43:23.048Z,94195.19
2023-02-22T07:46:28.236Z,94196.22
2023-02-22T07:49:31.798Z,94200.34
2023-02-22T07:52:34.832Z,94206.09
2023-02-22T07:55:38.995Z,94208.69
2023-02-22T07:58:42.595Z,94213.25
2023-02-22T08:01:46.629Z,94219.50
2023-02-22T08:04:49.540Z,94219.72
2023-02-22T08:07:53.173Z,94220.88
2023-02-22T08:10:56.725Z,94228.53
2023-02-22T08:14:00.411Z,94225.78
2023-02-22T08:17:04.032Z,94225.88
2023-02-22T08:20:08.362Z,94220.81
2023-02-22T08:23:12.892Z,94232.94
2023-02-22T08:26:19.430Z,94233.78
2023-02-22T08:29:24.305Z,94233.34
2023-02-22T08:32:28.696Z,94239.41
2023-02-22T08:35:33.238Z,94240.19
2023-02-22T08:38:37.310Z,94239.22
2023-02-22T08:41:41.030Z,94240.00
2023-02-22T08:44:43.956Z,94245.25
2023-02-22T08:47:47.405Z,94252.81
2023-02-22T08:50:53.837Z,94242.28
2023-02-22T08:53:58.352Z,94251.75
2023-02-22T08:57:02.324Z,94247.31
2023-02-22T09:00:07.021Z,94249.38
2023-02-22T09:03:14.164Z,94249.66
2023-02-22T09:06:17.751Z,94248.19
2023-02-22T09:09:22.346Z,94254.34
2023-02-22T09:12:25.225Z,94250.16
2023-02-22T09:15:29.528Z,94263.81
2023-02-22T09:18:43.490Z,94257.56
2023-02-22T09:21:54.489Z,94262.59
2023-02-22T09:25:00.229Z,94260.94
2023-02-22T09:28:03.405Z,94262.72
2023-02-22T09:31:07.441Z,94261.22
2023-02-22T09:34:35.832Z,94260.72
2023-02-22T09:37:38.992Z,94261.47
2023-02-22T09:40:48.223Z,94265.56
2023-02-22T09:44:14.515Z,94262.94
2023-02-22T09:47:22.359Z,94258.47
2023-02-22T09:50:43.171Z,94258.16
2023-02-22T09:53:50.327Z,94261.22
2023-02-22T09:56:58.403Z,94265.25
2023-02-22T10:00:15.614Z,94262.81
2023-02-22T10:03:35.598Z,94262.63
2023-02-22T10:06:43.011Z,94266.09
2023-02-22T10:09:50.176Z,94279.16
2023-02-22T10:13:30.946Z,94277.78
2023-02-22T10:16:44.917Z,94273.91
2023-02-22T10:20:13.934Z,94279.06
2023-02-22T10:23:35.511Z,94286.78
2023-02-22T10:26:43.113Z,94285.00
2023-02-22T10:29:54.058Z,94290.66
2023-02-22T10:33:07.360Z,94300.72
2023-02-22T10:36:19.620Z,94292.97
2023-02-22T10:39:34.430Z,94303.47
2023-02-22T10:42:37.391Z,94309.81
2023-02-22T10:45:41.881Z,94311.91
2023-02-22T10:48:49.726Z,94310.63
2023-02-22T10:52:02.420Z,94314.38
2023-02-22T10:55:15.693Z,94321.53
2023-02-22T10:58:19.150Z,94334.69
2023-02-22T11:01:50.596Z,94330.16
2023-02-22T11:04:57.344Z,94335.75
2023-02-22T11:08:22.956Z,94338.28
2023-02-22T11:11:29.748Z,94350.16
2023-02-22T11:14:33.824Z,94349.31
2023-02-22T11:17:37.446Z,94348.28
2023-02-22T11:20:40.634Z,94357.00
2023-02-22T11:23:45.049Z,94356.25
2023-02-22T11:26:51.844Z,94360.56
2023-02-22T11:30:08.229Z,94359.84
2023-02-22T11:33:17.700Z,94351.81
2023-02-22T11:36:43.080Z,94354.28
2023-02-22T11:39:46.258Z,94355.56
2023-02-22T11:43:06.329Z,94359.69
2023-02-22T11:46:18.354Z,94348.91
2023-02-22T11:49:23.682Z,94357.28
2023-02-22T11:52:43.271Z,94354.44
2023-02-22T11:56:16.105Z,94361.59
2023-02-22T11:59:44.117Z,94355.38
2023-02-22T12:03:18.532Z,94354.63
2023-02-22T12:06:49.931Z,94354.63
2023-02-22T12:10:43.552Z,94355.69
2023-02-22T12:13:56.055Z,94362.34
2023-02-22T12:17:02.740Z,94363.94
2023-02-22T12:20:26.814Z,94357.41
2023-02-22T12:24:05.044Z,94359.94
2023-02-22T12:27:12.836Z,94355.19
2023-02-22T12:30:17.013Z,94364.03
2023-02-22T12:33:27.964Z,94362.56
2023-02-22T12:36:51.033Z,94363.00
2023-02-22T12:40:09.527Z,94354.03
2023-02-22T12:43:23.108Z,94367.88
2023-02-22T12:46:35.192Z,94365.31
2023-02-22T12:49:57.542Z,94375.47
2023-02-22T12:53:13.996Z,94371.53
2023-02-22T12:56:34.300Z,94369.88
2023-02-22T13:00:03.265Z,94383.56
2023-02-22T13:03:21.370Z,94380.91
2023-02-22T13:06:53.732Z,94392.13
2023-02-22T13:10:19.242Z,94391.06
2023-02-22T13:13:30.295Z,94386.84
2023-02-22T13:16:59.364Z,94395.81
2023-02-22T13:20:24.985Z,94390.59
2023-02-22T13:23:51.853Z,94389.31
2023-02-22T13:27:05.432Z,94398.31
2023-02-22T13:30:20.443Z,94402.84
2023-02-22T13:33:50.041Z,94402.91
2023-02-22T13:37:08.082Z,94401.28
2023-02-22T13:40:17.542Z,94412.59
2023-02-22T13:43:35.719Z,94410.53
2023-02-22T13:47:05.800Z,94408.13
2023-02-22T13:50:32.695Z,94402.13
2023-02-22T13:53:59.077Z,94406.63
2023-02-22T13:57:03.672Z,94408.50
2023-02-22T14:00:15.865Z,94413.97
2023-02-22T14:03:41.373Z,94408.19
2023-02-22T14:06:46.659Z,94413.47
2023-02-22T14:09:54.536Z,94424.94
2023-02-22T14:13:06.104Z,94417.16
2023-02-22T14:16:12.726Z,94426.22
2023-02-22T14:19:21.519Z,94415.94
2023-02-22T14:22:30.625Z,94422.31
2023-02-22T14:25:41.396Z,94421.88
2023-02-22T14:28:52.542Z,94419.41
2023-02-22T14:32:11.702Z,94424.59
2023-02-22T14:35:28.621Z,94429.19
2023-02-22T14:38:35.280Z,94430.78
2023-02-22T14:41:41.825Z,94436.41
2023-02-22T14:44:56.202Z,94438.00
2023-02-22T14:48:14.171Z,94438.13
2023-02-22T14:51:31.695Z,94451.47
2023-02-22T14:55:22.060Z,94461.25
2023-02-22T14:58:35.712Z,94460.53
2023-02-22T15:01:50.795Z,94460.00
2023-02-22T15:04:59.788Z,94464.16
2023-02-22T15:08:07.944Z,94461.66
2023-02-22T15:11:24.927Z,94469.28
2023-02-22T15:14:27.947Z,94473.09
2023-02-22T15:17:31.332Z,94478.41
2023-02-22T15:20:37.435Z,94479.38
2023-02-22T15:23:42.847Z,94480.16
2023-02-22T15:27:00.593Z,94482.69
2023-02-22T15:30:27.656Z,94487.91
2023-02-22T15:33:38.480Z,94488.84
2023-02-22T15:36:44.195Z,94493.69
2023-02-22T15:39:47.841Z,94490.81
2023-02-22T15:42:54.516Z,94491.56
2023-02-22T15:45:59.997Z,94497.69
2023-02-22T15:49:13.171Z,94492.38
2023-02-22T15:52:26.543Z,94498.72
2023-02-22T15:55:39.544Z,94499.09
2023-02-22T15:58:46.597Z,94500.56
2023-02-22T16:01:53.994Z,94513.84
2023-02-22T16:05:14.249Z,94507.44
2023-02-22T16:08:24.764Z,94516.06
2023-02-22T16:11:40.833Z,94515.41
2023-02-22T16:14:45.699Z,94513.28
2023-02-22T16:18:01.482Z,94509.66
2023-02-22T16:21:08.228Z,94510.16
2023-02-22T16:24:27.826Z,94516.75
2023-02-22T16:27:31.104Z,94515.16
2023-02-22T16:30:37.101Z,94520.47
2023-02-22T16:33:43.056Z,94527.50
2023-02-22T16:36:49.678Z,94529.84
2023-02-22T16:39:53.734Z,94525.06
2023-02-22T16:42:57.433Z,94529.16
2023-02-22T16:46:02.625Z,94536.88
2023-02-22T16:49:05.894Z,94540.03
2023-02-22T16:52:10.140Z,94537.25
2023-02-22T16:55:16.664Z,94534.84
2023-02-22T16:58:20.771Z,94536.34
2023-02-22T17:01:24.755Z,94537.59
2023-02-22T17:04:30.039Z,94543.66
2023-02-22T17:07:33.632Z,94561.47
2023-02-22T17:10:38.754Z,94556.06
2023-02-22T17:13:42.413Z,94562.03
2023-02-22T17:16:47.999Z,94567.78
2023-02-22T17:19:51.709Z,94561.34
2023-02-22T17:22:55.674Z,94559.56
2023-02-22T17:26:03.831Z,94562.53
2023-02-22T17:29:07.446Z,94558.84
2023-02-22T17:32:10.531Z,94567.69
2023-02-22T17:35:14.624Z,94577.75
2023-02-22T17:38:19.022Z,94574.44
2023-02-22T17:41:22.342Z,94577.47
2023-02-22T17:44:26.968Z,94577.13
2023-02-22T17:47:31.996Z,94581.41
2023-02-22T17:50:39.497Z,94590.44
2023-02-22T17:53:43.506Z,94588.25
2023-02-22T17:56:47.186Z,94587.09
2023-02-22T17:59:50.485Z,94596.31
2023-02-22T18:02:53.422Z,94592.84
2023-02-22T18:06:00.088Z,94594.00
2023-02-22T18:09:10.973Z,94595.75
2023-02-22T18:12:14.506Z,94593.84
2023-02-22T18:15:20.451Z,94591.44
2023-02-22T18:18:24.045Z,94599.69
2023-02-22T18:21:27.776Z,94604.91
2023-02-22T18:24:37.635Z,94611.03
2023-02-22T18:27:45.822Z,94611.47
2023-02-22T18:30:50.297Z,94613.69
2023-02-22T18:33:54.043Z,94609.72
2023-02-22T18:36:57.578Z,94621.16
2023-02-22T18:40:01.040Z,94619.28
2023-02-22T18:43:04.942Z,94620.53
2023-02-22T18:46:09.569Z,94620.44
2023-02-22T18:49:14.994Z,94625.41
2023-02-22T18:52:18.811Z,94624.41
2023-02-22T18:55:23.513Z,94631.16
2023-02-22T18:58:27.013Z,94628.91
2023-02-22T19:01:32.014Z,94624.03
2023-02-22T19:04:35.650Z,94630.88
2023-02-22T19:07:39.597Z,94631.44
2023-02-22T19:10:42.524Z,94628.50
2023-02-22T19:13:50.111Z,94642.03
2023-02-22T19:16:57.472Z,94646.13
2023-02-22T19:20:01.539Z,94644.25
2023-02-22T19:23:04.528Z,94649.97
2023-02-22T19:26:10.169Z,94645.25
2023-02-22T19:29:13.104Z,94653.50
2023-02-22T19:32:18.185Z,94662.28
2023-02-22T19:35:27.614Z,94662.78
2023-02-22T19:38:32.224Z,94662.00
2023-02-22T19:41:35.224Z,94671.28
2023-02-22T19:44:40.096Z,94673.09
2023-02-22T19:47:43.050Z,94675.88
2023-02-22T19:50:50.503Z,94676.34
2023-02-22T19:53:56.561Z,94673.38
2023-02-22T19:57:00.435Z,94682.47
2023-02-22T20:00:11.377Z,94683.53
2023-02-22T20:03:16.851Z,94691.56
2023-02-22T20:06:26.992Z,94676.28
2023-02-22T20:09:37.136Z,94683.78
2023-02-22T20:12:40.762Z,94686.50
2023-02-22T20:15:46.061Z,94691.47
2023-02-22T20:18:50.642Z,94691.69
2023-02-22T20:21:56.624Z,94692.19
2023-02-22T20:25:00.203Z,94680.88
2023-02-22T20:28:03.357Z,94678.97
2023-02-22T20:31:11.819Z,94685.44
2023-02-22T20:34:16.435Z,94693.44
2023-02-22T20:37:20.028Z,94690.72
2023-02-22T20:40:23.229Z,94695.00
2023-02-22T20:43:26.810Z,94698.28
2023-02-22T20:46:36.510Z,94707.97
2023-02-22T20:49:39.450Z,94696.25
2023-02-22T20:52:42.923Z,94710.97
2023-02-22T20:55:53.321Z,94712.41
2023-02-22T20:59:01.689Z,94719.44
2023-02-22T21:02:05.550Z,94724.44
2023-02-22T21:05:10.464Z,94727.41
2023-02-22T21:08:16.171Z,94725.94
2023-02-22T21:11:20.552Z,94724.69
2023-02-22T21:14:24.942Z,94729.16
2023-02-22T21:17:31.581Z,94733.66
2023-02-22T21:20:35.880Z,94734.13
2023-02-22T21:23:41.465Z,94737.88
2023-02-22T21:26:45.036Z,94746.88
2023-02-22T21:29:49.080Z,94758.34
2023-02-22T21:32:54.469Z,94758.03
2023-02-22T21:35:58.482Z,94765.53
2023-02-22T21:39:18.426Z,94770.47
2023-02-22T21:42:22.461Z,94770.94
2023-02-22T21:45:26.816Z,94767.66
2023-02-22T21:48:31.021Z,94771.91
2023-02-22T21:51:38.195Z,94780.56
2023-02-22T21:54:42.023Z,94784.47
2023-02-22T21:57:46.022Z,94797.84
2023-02-22T22:00:50.058Z,94803.91
2023-02-22T22:03:53.636Z,94800.50
2023-02-22T22:07:00.271Z,94796.53
2023-02-22T22:10:07.336Z,94803.47
2023-02-22T22:13:11.264Z,94804.41
2023-02-22T22:16:17.427Z,94805.63
2023-02-22T22:19:21.401Z,94821.97
2023-02-22T22:22:24.428Z,94815.88
2023-02-22T22:25:29.158Z,94821.34
2023-02-22T22:28:32.737Z,94822.66
2023-02-22T22:31:36.238Z,94819.91
2023-02-22T22:34:40.329Z,94818.69
2023-02-22T22:37:44.108Z,94819.44
2023-02-22T22:40:51.468Z,94823.84
2023-02-22T22:43:55.665Z,94824.38
2023-02-22T22:46:59.300Z,94820.50
2023-02-22T22:50:03.196Z,94812.72
2023-02-22T22:53:06.765Z,94817.78
2023-02-22T22:56:17.176Z,94825.50
2023-02-22T22:59:20.781Z,94840.09
2023-02-22T23:02:25.020Z,94837.72
2023-02-22T23:05:29.881Z,94842.72
2023-02-22T23:08:43.970Z,94843.28
2023-02-22T23:11:53.904Z,94850.09
2023-02-22T23:14:59.234Z,94864.81
2023-02-22T23:18:04.288Z,94875.84
2023-02-22T23:21:08.314Z,94863.41
2023-02-22T23:24:15.893Z,94862.66
2023-02-22T23:27:19.991Z,94874.38
2023-02-22T23:30:23.622Z,94878.78
2023-02-22T23:33:27.666Z,94883.53
2023-02-22T23:36:31.283Z,94894.84
2023-02-22T23:39:35.217Z,94908.69
2023-02-22T23:42:39.325Z,94908.25
2023-02-22T23:45:43.308Z,94904.56
2023-02-22T23:48:55.085Z,94901.28
2023-02-22T23:51:59.092Z,94910.28
2023-02-22T23:55:06.072Z,94913.13
2023-02-22T23:58:10.533Z,94921.91
